Time;durP1;ratioP1;P1;durP2;ratioP2;P2;SDS_P1;SDS_P2;PMS_P1;PMS_P2;Temp;Humidity;BMP_temperature;BMP_pressure;BME280_temperature;BME280_humidity;BME280_pressure;Samples;Min_cycle;Max_cycle;Signal;HPM_P1;HPM_P2
2022/08/19 00:00:30;;;;;;;3.67;2.83;;;18.60;65.10;;;;;;4987386;28;20367;-63
2022/08/19 00:02:56;;;;;;;3.78;2.85;;;18.60;65.10;;;;;;4984074;28;20056;-64
2022/08/19 00:05:22;;;;;;;5.65;3.72;;;18.60;65.50;;;;;;4984739;28;20113;-63
2022/08/19 00:07:49;;;;;;;4.10;2.90;;;18.70;65.00;;;;;;4991595;28;20054;-69
2022/08/19 00:10:16;;;;;;;3.38;2.90;;;18.70;65.00;;;;;;4991759;28;20038;-68
2022/08/19 00:12:42;;;;;;;4.70;3.33;;;18.70;65.00;;;;;;4989501;28;20057;-68
2022/08/19 00:15:12;;;;;;;5.03;2.67;;;18.70;64.90;;;;;;4982294;28;20054;-69
2022/08/19 00:17:43;;;;;;;3.65;3.10;;;18.70;64.90;;;;;;4992853;28;20042;-68
2022/08/19 00:20:11;;;;;;;4.15;2.97;;;18.70;64.80;;;;;;4975649;28;20049;-68
2022/08/19 00:22:38;;;;;;;5.15;2.83;;;18.70;64.70;;;;;;4977863;28;20045;-70
2022/08/19 00:25:05;;;;;;;3.55;2.50;;;18.80;64.70;;;;;;4975182;28;20045;-68
2022/08/19 00:27:31;;;;;;;5.90;3.05;;;18.80;64.60;;;;;;4972942;28;20121;-69
2022/08/19 00:29:58;;;;;;;4.75;3.05;;;18.80;64.90;;;;;;4991972;28;20129;-63
2022/08/19 00:32:25;;;;;;;4.65;3.13;;;18.80;64.40;;;;;;4985156;28;20047;-63
2022/08/19 00:34:52;;;;;;;2.90;2.60;;;18.80;64.30;;;;;;4988020;28;20046;-64
2022/08/19 00:37:19;;;;;;;3.33;2.90;;;18.80;64.20;;;;;;4987070;28;20482;-64
2022/08/19 00:39:45;;;;;;;4.07;2.88;;;18.80;64.20;;;;;;4991819;28;20047;-64
2022/08/19 00:42:10;;;;;;;3.05;2.42;;;18.80;64.10;;;;;;4987226;28;20030;-64
2022/08/19 00:44:36;;;;;;;4.03;2.75;;;18.80;64.00;;;;;;4976792;28;20043;-64
2022/08/19 00:47:02;;;;;;;4.07;2.92;;;18.80;63.90;;;;;;4974482;28;20509;-64
2022/08/19 00:49:30;;;;;;;3.33;2.30;;;18.80;63.80;;;;;;4986892;28;20079;-63
2022/08/19 00:52:02;;;;;;;3.35;2.53;;;18.80;63.70;;;;;;4981227;28;20042;-64
2022/08/19 00:54:31;;;;;;;4.20;2.42;;;18.80;63.70;;;;;;4981302;28;20047;-64
2022/08/19 00:56:59;;;;;;;3.30;2.30;;;18.80;63.60;;;;;;4978211;28;20030;-64
2022/08/19 00:59:25;;;;;;;4.05;3.20;;;18.80;63.70;;;;;;4976994;28;20070;-64
2022/08/19 01:01:52;;;;;;;4.03;2.60;;;18.70;63.60;;;;;;4980364;28;20042;-63
2022/08/19 01:04:17;;;;;;;4.05;2.80;;;18.70;63.60;;;;;;4982692;28;20712;-64
2022/08/19 01:06:43;;;;;;;3.00;2.40;;;18.70;63.50;;;;;;4977051;28;20046;-63
2022/08/19 01:09:10;;;;;;;5.10;2.80;;;18.70;63.50;;;;;;4977766;28;20043;-63
2022/08/19 01:11:40;;;;;;;3.22;2.50;;;18.70;63.50;;;;;;4981197;28;20045;-63
2022/08/19 01:14:08;;;;;;;2.92;2.63;;;18.70;63.40;;;;;;4981217;28;20074;-64
2022/08/19 01:16:36;;;;;;;4.25;2.97;;;18.70;63.30;;;;;;4985204;28;20486;-64
2022/08/19 01:19:10;;;;;;;3.50;3.03;;;18.70;63.30;;;;;;4976448;28;20101;-64
2022/08/19 01:21:47;;;;;;;3.75;2.28;;;18.70;63.30;;;;;;4977627;28;20044;-64
2022/08/19 01:24:13;;;;;;;2.88;2.20;;;18.60;63.20;;;;;;4988808;28;20084;-64
2022/08/19 01:26:42;;;;;;;2.97;2.65;;;18.60;63.10;;;;;;4992743;28;20046;-64
2022/08/19 01:29:09;;;;;;;2.75;2.15;;;18.60;63.20;;;;;;4988596;28;20490;-64
2022/08/19 01:31:36;;;;;;;2.65;2.28;;;18.60;63.20;;;;;;4976426;28;20050;-64
2022/08/19 01:34:03;;;;;;;2.58;2.22;;;18.60;63.20;;;;;;4985456;28;20042;-64
2022/08/19 01:36:50;;;;;;;2.75;2.20;;;18.60;63.30;;;;;;4980549;28;20046;-64
2022/08/19 01:39:24;;;;;;;2.00;1.80;;;18.50;63.20;;;;;;4977208;28;20169;-64
2022/08/19 01:41:50;;;;;;;3.03;2.55;;;18.50;63.20;;;;;;4976437;28;20043;-64
2022/08/19 01:44:17;;;;;;;3.72;2.33;;;18.50;63.20;;;;;;4983503;28;20039;-64
2022/08/19 01:46:43;;;;;;;2.95;2.25;;;18.50;63.30;;;;;;4978644;28;20644;-64
2022/08/19 01:49:10;;;;;;;3.63;2.72;;;18.40;63.30;;;;;;4979868;28;20034;-65
2022/08/19 01:51:35;;;;;;;3.40;2.45;;;18.40;63.30;;;;;;4993937;28;20066;-64
2022/08/19 01:54:01;;;;;;;3.53;3.13;;;18.40;63.30;;;;;;4984170;28;20461;-64
2022/08/19 01:56:27;;;;;;;3.10;2.70;;;18.40;63.40;;;;;;4975635;28;20038;-64
2022/08/19 01:59:02;;;;;;;3.30;2.50;;;18.40;63.40;;;;;;4976889;28;20118;-64
2022/08/19 02:01:31;;;;;;;3.10;2.80;;;18.40;63.40;;;;;;4961376;28;20113;-62
2022/08/19 02:03:58;;;;;;;3.15;2.70;;;18.30;63.30;;;;;;4975234;28;20498;-63
2022/08/19 02:06:24;;;;;;;3.00;2.20;;;18.30;63.30;;;;;;4976106;28;20442;-63
2022/08/19 02:08:50;;;;;;;3.17;2.33;;;18.30;63.30;;;;;;4958280;28;20046;-63
2022/08/19 02:11:26;;;;;;;2.50;2.30;;;18.30;63.40;;;;;;4982626;28;20113;-63
2022/08/19 02:13:53;;;;;;;3.08;2.47;;;18.30;63.40;;;;;;4976165;28;20043;-63
2022/08/19 02:16:19;;;;;;;4.07;2.40;;;18.30;63.50;;;;;;4975514;28;20554;-63
2022/08/19 02:18:48;;;;;;;3.17;2.60;;;18.30;63.60;;;;;;4982958;28;20038;-64
2022/08/19 02:21:18;;;;;;;3.15;2.58;;;18.30;63.60;;;;;;4985358;28;20390;-64
2022/08/19 02:23:44;;;;;;;2.22;1.95;;;18.20;63.50;;;;;;4979027;28;20037;-64
2022/08/19 02:26:10;;;;;;;3.40;2.90;;;18.20;63.90;;;;;;4988468;28;20046;-64
2022/08/19 02:28:36;;;;;;;4.05;3.13;;;18.20;63.50;;;;;;4975281;28;20474;-65
2022/08/19 02:31:03;;;;;;;2.88;2.53;;;18.20;63.50;;;;;;4976041;28;20054;-64
2022/08/19 02:33:29;;;;;;;3.50;2.50;;;18.20;63.50;;;;;;4977056;28;20046;-64
2022/08/19 02:35:55;;;;;;;3.22;2.85;;;18.20;63.60;;;;;;4982061;28;20498;-64
2022/08/19 02:38:26;;;;;;;3.15;2.67;;;18.20;63.60;;;;;;4979452;28;20050;-64
2022/08/19 02:41:02;;;;;;;3.55;2.60;;;18.20;63.60;;;;;;4982502;28;20039;-64
2022/08/19 02:43:29;;;;;;;3.20;2.90;;;18.10;63.60;;;;;;4985298;28;20049;-64
2022/08/19 02:45:55;;;;;;;2.42;2.17;;;18.10;63.60;;;;;;4993432;28;20054;-64
2022/08/19 02:48:23;;;;;;;3.53;2.60;;;18.10;63.90;;;;;;4991876;28;20133;-63
2022/08/19 02:50:54;;;;;;;3.17;2.60;;;18.10;63.40;;;;;;4979565;28;20057;-63
2022/08/19 02:53:23;;;;;;;3.30;2.35;;;18.10;63.30;;;;;;4986032;28;20393;-63
2022/08/19 02:55:50;;;;;;;2.55;2.22;;;18.10;63.30;;;;;;4974739;28;20110;-64
2022/08/19 02:58:16;;;;;;;3.15;2.45;;;18.10;63.20;;;;;;4975121;28;20042;-63
2022/08/19 03:00:54;;;;;;;4.05;2.65;;;18.10;63.10;;;;;;4976129;28;20054;-64
2022/08/19 03:03:21;;;;;;;1.77;1.60;;;18.10;63.50;;;;;;4986049;28;20031;-64
2022/08/19 03:05:47;;;;;;;2.17;1.92;;;18.00;63.00;;;;;;4973529;28;20049;-65
2022/08/19 03:08:13;;;;;;;3.25;1.52;;;18.00;63.00;;;;;;4972813;28;20055;-63
2022/08/19 03:10:47;;;;;;;2.20;1.77;;;18.00;63.00;;;;;;4984095;28;20074;-63
2022/08/19 03:13:17;;;;;;;2.15;1.83;;;18.00;62.90;;;;;;4991778;28;20490;-65
2022/08/19 03:15:45;;;;;;;2.58;1.80;;;18.00;62.90;;;;;;4993490;28;20042;-68
2022/08/19 03:18:12;;;;;;;2.90;1.50;;;18.00;62.90;;;;;;4992640;28;20042;-68
2022/08/19 03:20:47;;;;;;;3.42;2.10;;;17.90;62.90;;;;;;4991572;28;20034;-67
2022/08/19 03:23:13;;;;;;;1.60;1.42;;;18.00;62.90;;;;;;4988667;28;20037;-68
2022/08/19 03:25:46;;;;;;;3.03;1.80;;;17.90;62.80;;;;;;4992627;28;20532;-68
2022/08/19 03:28:13;;;;;;;1.80;1.60;;;17.90;62.80;;;;;;4978492;28;20039;-68
2022/08/19 03:30:43;;;;;;;2.25;1.85;;;17.90;62.90;;;;;;4973499;28;20375;-67
2022/08/19 03:33:11;;;;;;;3.47;1.95;;;17.80;62.90;;;;;;4982168;28;20081;-68
2022/08/19 03:35:37;;;;;;;1.73;1.45;;;17.80;63.00;;;;;;4974323;28;20483;-69
2022/08/19 03:38:04;;;;;;;1.88;1.60;;;17.80;63.00;;;;;;4973502;28;20046;-68
2022/08/19 03:40:34;;;;;;;1.90;1.40;;;17.80;62.90;;;;;;4975085;28;20038;-68
2022/08/19 03:43:00;;;;;;;2.30;1.40;;;17.80;62.80;;;;;;4982403;28;20050;-69
2022/08/19 03:45:27;;;;;;;2.00;1.60;;;17.80;62.80;;;;;;4977009;28;20393;-69
2022/08/19 03:47:53;;;;;;;2.13;1.58;;;17.80;62.80;;;;;;4974280;28;20046;-68
2022/08/19 03:50:19;;;;;;;2.97;2.10;;;17.80;62.80;;;;;;4985714;28;20489;-68
2022/08/19 03:52:50;;;;;;;2.42;1.73;;;17.70;62.80;;;;;;4980621;28;20042;-67
2022/08/19 03:55:17;;;;;;;1.88;1.67;;;17.70;62.80;;;;;;4982346;28;20047;-67
2022/08/19 03:57:42;;;;;;;2.47;1.90;;;17.70;62.90;;;;;;4974123;28;20070;-69
2022/08/19 04:00:09;;;;;;;2.42;1.98;;;17.70;62.90;;;;;;4974142;28;20035;-69
2022/08/19 04:02:34;;;;;;;2.53;1.65;;;17.70;62.90;;;;;;4984787;28;20433;-68
2022/08/19 04:05:00;;;;;;;2.28;1.40;;;17.70;62.90;;;;;;4987776;28;20086;-68
2022/08/19 04:07:26;;;;;;;2.72;1.30;;;17.70;62.90;;;;;;4983988;28;20045;-69
2022/08/19 04:09:53;;;;;;;1.90;1.40;;;17.70;62.90;;;;;;4992763;28;20108;-68
2022/08/19 04:12:20;;;;;;;2.72;1.52;;;17.70;62.80;;;;;;4977846;28;20046;-68
2022/08/19 04:14:46;;;;;;;2.10;1.48;;;17.60;62.70;;;;;;4984363;28;20113;-69
2022/08/19 04:17:13;;;;;;;1.40;1.20;;;17.60;62.60;;;;;;4974014;28;20039;-68
2022/08/19 04:19:40;;;;;;;2.22;1.65;;;17.60;62.70;;;;;;4977486;28;20050;-68
2022/08/19 04:22:06;;;;;;;2.17;1.73;;;17.60;62.70;;;;;;4976905;28;20042;-69
2022/08/19 04:24:35;;;;;;;2.10;1.80;;;17.60;62.80;;;;;;4978326;28;20042;-68
2022/08/19 04:27:02;;;;;;;2.13;1.67;;;17.50;62.80;;;;;;4981096;28;20085;-68
2022/08/19 04:29:29;;;;;;;1.60;1.40;;;17.50;62.70;;;;;;4996285;28;20067;-70
2022/08/19 04:31:56;;;;;;;2.03;1.48;;;17.50;62.80;;;;;;4977775;28;20039;-68
2022/08/19 04:34:24;;;;;;;2.30;1.83;;;17.50;62.70;;;;;;4985601;28;20047;-68
2022/08/19 04:36:52;;;;;;;1.60;1.45;;;17.50;62.70;;;;;;4996409;28;20114;-68
2022/08/19 04:42:38;;;;;;;1.60;1.30;;;17.50;62.80;;;;;;4995659;28;20078;-68
2022/08/19 04:44:54;;;;;;;2.10;1.52;;;17.40;62.80;;;;;;4980553;28;20054;-68
2022/08/19 04:47:21;;;;;;;2.63;1.77;;;17.30;62.90;;;;;;4980111;28;20050;-67
2022/08/19 04:49:48;;;;;;;2.00;1.80;;;17.40;63.00;;;;;;4976193;28;20053;-67
2022/08/19 04:52:13;;;;;;;2.60;2.15;;;17.30;63.00;;;;;;4984064;28;20042;-68
2022/08/19 04:54:39;;;;;;;1.85;1.60;;;17.30;63.10;;;;;;4993753;28;20053;-68
2022/08/19 04:57:08;;;;;;;2.15;1.58;;;17.30;63.10;;;;;;4996354;28;20108;-68
2022/08/19 04:59:34;;;;;;;2.90;2.08;;;17.30;63.20;;;;;;4996407;28;20038;-67
2022/08/19 05:02:00;;;;;;;4.15;2.80;;;17.30;63.20;;;;;;4995172;28;20042;-68
2022/08/19 05:04:26;;;;;;;3.03;2.30;;;17.30;63.20;;;;;;4988284;28;20046;-69
2022/08/19 05:06:53;;;;;;;3.88;3.17;;;17.30;63.30;;;;;;4976949;28;20121;-68
2022/08/19 05:09:19;;;;;;;3.85;3.33;;;17.20;63.40;;;;;;4986763;28;20065;-68
2022/08/19 05:11:45;;;;;;;4.65;3.88;;;17.20;63.40;;;;;;4996309;28;20101;-68
2022/08/19 05:14:12;;;;;;;4.68;3.80;;;17.20;63.30;;;;;;4996070;28;20054;-68
2022/08/19 05:16:39;;;;;;;5.22;3.60;;;17.20;63.40;;;;;;4996239;28;20077;-68
2022/08/19 05:24:34;;;;;;;6.53;5.25;;;17.10;63.50;;;;;;4993067;28;19972;-68
2022/08/19 05:27:02;;;;;;;7.22;4.97;;;17.10;64.10;;;;;;4994099;28;20437;-68
2022/08/19 05:29:31;;;;;;;9.55;5.82;;;17.10;64.30;;;;;;4995852;28;20474;-68
2022/08/19 05:31:58;;;;;;;6.68;4.95;;;17.10;64.60;;;;;;4993696;28;20050;-68
2022/08/19 05:34:25;;;;;;;6.60;5.78;;;17.10;64.80;;;;;;4995181;28;20081;-68
2022/08/19 05:36:56;;;;;;;5.82;4.85;;;17.10;65.10;;;;;;4995811;28;20048;-67
2022/08/19 05:39:29;;;;;;;7.00;6.05;;;17.10;65.40;;;;;;4996119;28;20113;-68
2022/08/19 05:41:58;;;;;;;5.30;4.75;;;17.10;65.90;;;;;;4992489;28;20118;-68
2022/08/19 05:44:26;;;;;;;5.68;4.55;;;17.10;66.50;;;;;;4993815;28;20045;-68
2022/08/19 05:46:52;;;;;;;5.88;5.25;;;17.20;66.20;;;;;;4995763;28;20046;-68
2022/08/19 05:49:21;;;;;;;5.88;4.60;;;17.20;66.40;;;;;;4994296;28;20051;-68
2022/08/19 05:51:46;;;;;;;5.90;4.95;;;17.20;66.50;;;;;;4994053;28;20042;-68
2022/08/19 05:54:13;;;;;;;6.60;5.30;;;17.30;66.60;;;;;;4993643;28;20108;-68
2022/08/19 05:56:41;;;;;;;9.85;7.20;;;17.30;66.90;;;;;;4994200;28;20538;-68
2022/08/19 05:59:09;;;;;;;9.75;8.60;;;17.40;67.70;;;;;;4993735;28;20444;-68
2022/08/19 06:01:35;;;;;;;10.35;9.25;;;17.50;68.80;;;;;;4993924;28;20110;-68
2022/08/19 06:04:02;;;;;;;10.55;8.98;;;17.80;69.40;;;;;;4993360;28;20035;-68
2022/08/19 06:06:28;;;;;;;7.38;6.63;;;18.10;69.30;;;;;;4976144;28;20114;-69
2022/08/19 06:08:54;;;;;;;7.68;6.35;;;18.60;68.70;;;;;;4976011;28;20035;-67
2022/08/19 06:11:24;;;;;;;8.43;7.55;;;19.00;67.90;;;;;;4975900;28;20037;-68
2022/08/19 06:13:52;;;;;;;10.52;9.43;;;19.60;67.20;;;;;;4976263;28;20109;-62
2022/08/19 06:16:22;;;;;;;9.43;8.30;;;20.00;66.40;;;;;;4975501;28;20045;-63
2022/08/19 06:18:52;;;;;;;8.48;7.68;;;20.60;65.40;;;;;;4984356;28;20035;-63
2022/08/19 06:21:22;;;;;;;10.02;9.02;;;21.10;64.40;;;;;;4994970;28;20057;-62
2022/08/19 06:23:50;;;;;;;9.35;8.45;;;21.60;63.30;;;;;;4994523;28;20030;-63
2022/08/19 06:26:18;;;;;;;8.80;7.90;;;22.10;62.60;;;;;;4974643;28;20106;-62
2022/08/19 06:28:46;;;;;;;10.15;9.15;;;22.50;61.50;;;;;;4975160;28;20078;-63
2022/08/19 06:31:24;;;;;;;11.88;9.77;;;23.00;60.60;;;;;;4975136;28;20122;-62
2022/08/19 06:33:50;;;;;;;9.55;8.35;;;23.40;59.50;;;;;;4973985;28;20043;-64
2022/08/19 06:36:26;;;;;;;10.20;9.27;;;23.80;59.00;;;;;;4986979;28;20092;-63
2022/08/19 06:38:53;;;;;;;9.57;8.60;;;24.30;58.20;;;;;;4983938;28;20050;-63
2022/08/19 06:41:18;;;;;;;9.20;8.23;;;24.60;57.50;;;;;;4974808;28;20561;-65
2022/08/19 06:43:44;;;;;;;9.38;8.32;;;25.00;56.90;;;;;;4974908;28;20122;-64
2022/08/19 06:46:12;;;;;;;10.85;8.93;;;25.40;56.40;;;;;;4993074;28;20038;-64
2022/08/19 06:48:39;;;;;;;10.57;9.38;;;25.70;55.90;;;;;;4994461;28;20038;-65
2022/08/19 06:51:05;;;;;;;11.20;10.07;;;25.90;55.50;;;;;;4994141;28;20395;-63
2022/08/19 06:53:31;;;;;;;10.13;9.13;;;26.10;54.80;;;;;;4975745;28;20042;-63
2022/08/19 06:56:01;;;;;;;10.32;9.30;;;26.30;54.40;;;;;;4990732;28;20042;-68
2022/08/19 06:58:34;;;;;;;9.13;8.07;;;26.50;54.20;;;;;;4994270;28;20437;-67
2022/08/19 07:01:03;;;;;;;10.48;9.35;;;26.60;53.30;;;;;;4994430;28;20072;-67
2022/08/19 07:03:31;;;;;;;9.48;8.57;;;26.80;53.10;;;;;;4994345;28;20122;-68
2022/08/19 07:05:57;;;;;;;10.25;8.85;;;27.00;52.80;;;;;;4976894;28;20047;-70
2022/08/19 07:08:24;;;;;;;9.93;8.88;;;27.20;52.60;;;;;;4976364;28;20104;-70
2022/08/19 07:10:49;;;;;;;9.60;8.30;;;27.30;52.10;;;;;;4993793;28;20093;-70
2022/08/19 07:13:15;;;;;;;10.05;8.93;;;27.50;51.70;;;;;;4992834;28;20501;-69
2022/08/19 07:15:41;;;;;;;10.43;9.52;;;27.60;51.60;;;;;;4992151;28;20038;-68
2022/08/19 07:18:06;;;;;;;11.05;10.05;;;27.70;51.30;;;;;;4992847;28;20410;-68
2022/08/19 07:20:32;;;;;;;9.73;8.80;;;27.80;51.40;;;;;;4993966;28;20172;-68
2022/08/19 07:22:58;;;;;;;10.43;9.43;;;27.80;51.20;;;;;;4993904;28;20050;-64
2022/08/19 07:25:24;;;;;;;11.00;9.93;;;28.00;51.20;;;;;;4990689;28;20034;-64
2022/08/19 07:27:50;;;;;;;7.97;7.25;;;28.10;51.40;;;;;;4992144;28;20042;-63
2022/08/19 07:30:16;;;;;;;9.88;8.90;;;28.20;50.50;;;;;;4993576;28;20502;-63
2022/08/19 07:32:42;;;;;;;11.15;10.10;;;28.40;50.60;;;;;;4992873;28;20046;-69
2022/08/19 07:35:09;;;;;;;11.10;10.00;;;28.60;50.80;;;;;;4990757;28;20100;-64
2022/08/19 07:37:37;;;;;;;9.77;8.80;;;28.70;50.80;;;;;;4992379;28;20050;-64
2022/08/19 07:40:07;;;;;;;9.55;8.40;;;28.90;50.40;;;;;;4993753;28;20041;-64
2022/08/19 07:42:33;;;;;;;9.35;8.18;;;29.00;49.90;;;;;;4986479;28;20085;-65
2022/08/19 07:44:58;;;;;;;10.68;9.73;;;29.10;49.60;;;;;;4990927;28;20050;-64
2022/08/19 07:47:24;;;;;;;9.18;7.82;;;29.20;49.40;;;;;;4993460;28;20085;-64
2022/08/19 07:49:50;;;;;;;10.60;9.27;;;29.20;48.90;;;;;;4992532;28;20073;-65
2022/08/19 07:52:16;;;;;;;9.30;8.40;;;29.30;48.90;;;;;;4978590;28;20042;-65
2022/08/19 07:54:42;;;;;;;11.20;10.07;;;29.40;48.60;;;;;;4992245;28;20493;-65
2022/08/19 07:57:08;;;;;;;12.13;10.95;;;29.50;48.30;;;;;;4997788;28;20118;-65
2022/08/19 07:59:35;;;;;;;9.88;8.90;;;29.60;48.10;;;;;;4998200;28;20038;-64
2022/08/19 08:02:02;;;;;;;9.30;8.32;;;29.60;48.10;;;;;;4996162;28;20522;-64
2022/08/19 08:09:58;;;;;;;12.48;11.38;;;29.80;47.30;;;;;;4987821;28;20405;-69
2022/08/19 08:12:35;;;;;;;13.60;12.38;;;29.80;47.30;;;;;;4996603;28;20046;-69
2022/08/19 08:15:07;;;;;;;13.80;12.63;;;29.90;47.40;;;;;;4980597;28;20478;-70
2022/08/19 08:17:33;;;;;;;13.65;12.35;;;30.00;47.30;;;;;;4995733;28;20050;-70
2022/08/19 08:19:59;;;;;;;12.43;10.60;;;30.10;47.40;;;;;;4996777;28;20060;-69
2022/08/19 08:25:14;;;;;;;11.88;10.77;;;30.20;47.70;;;;;;4993885;28;20049;-64
2022/08/19 08:27:41;;;;;;;12.38;11.27;;;30.30;47.00;;;;;;4995996;28;20363;-65
2022/08/19 08:30:14;;;;;;;13.50;12.20;;;30.40;46.90;;;;;;4996985;28;20063;-65
2022/08/19 08:32:41;;;;;;;12.93;11.73;;;30.40;46.70;;;;;;4990744;28;20108;-64
2022/08/19 08:35:10;;;;;;;13.13;11.82;;;30.50;46.30;;;;;;4989805;28;20050;-64
2022/08/19 08:37:35;;;;;;;14.10;12.93;;;30.50;46.30;;;;;;4992770;28;20030;-65
2022/08/19 08:40:30;;;;;;;15.10;13.80;;;30.60;46.00;;;;;;4991583;28;20035;-64
2022/08/19 08:43:01;;;;;;;8.82;8.02;;;30.70;46.70;;;;;;4989040;28;20150;-64
2022/08/19 08:45:28;;;;;;;17.08;15.55;;;30.80;45.70;;;;;;4985061;28;20038;-69
2022/08/19 08:48:01;;;;;;;15.50;14.10;;;30.80;46.00;;;;;;4988038;28;20065;-69
2022/08/19 08:50:38;;;;;;;13.95;12.75;;;30.90;46.10;;;;;;4995366;28;20069;-70
2022/08/19 08:53:06;;;;;;;12.73;11.63;;;31.00;45.80;;;;;;4996805;28;20047;-65
2022/08/19 08:55:32;;;;;;;14.20;12.90;;;31.00;45.80;;;;;;4993655;28;20495;-71
2022/08/19 08:58:05;;;;;;;14.38;13.00;;;31.00;45.90;;;;;;4983230;28;20093;-71
2022/08/19 09:00:38;;;;;;;14.85;13.45;;;31.10;45.70;;;;;;4977036;28;20035;-71
2022/08/19 09:03:10;;;;;;;16.48;14.88;;;31.20;45.30;;;;;;4975765;28;20054;-67
2022/08/19 09:05:35;;;;;;;14.20;13.00;;;31.20;45.10;;;;;;4976899;28;20051;-70
2022/08/19 09:08:10;;;;;;;14.15;12.80;;;31.20;45.40;;;;;;4976034;28;20108;-66
2022/08/19 09:10:57;;;;;;;15.63;14.13;;;31.30;45.10;;;;;;4959725;28;20047;-68
2022/08/19 09:13:52;;;;;;;16.15;14.73;;;31.40;45.00;;;;;;4975570;28;20529;-70
2022/08/19 09:16:20;;;;;;;14.38;13.05;;;31.40;45.10;;;;;;4976449;28;20039;-65
2022/08/19 09:18:53;;;;;;;16.17;14.57;;;31.40;45.00;;;;;;4976632;28;20097;-64
2022/08/19 09:21:20;;;;;;;13.63;12.45;;;31.40;44.80;;;;;;4975665;28;20430;-66
2022/08/19 09:23:46;;;;;;;12.68;11.55;;;31.50;45.00;;;;;;4976478;28;20097;-70
2022/08/19 09:26:15;;;;;;;12.85;11.55;;;31.50;44.90;;;;;;4977546;28;20065;-71
2022/08/19 09:28:43;;;;;;;11.75;10.65;;;31.60;44.80;;;;;;4994281;28;20053;-70
2022/08/19 09:31:14;;;;;;;12.93;11.73;;;31.60;44.70;;;;;;4994688;28;20132;-71
2022/08/19 09:33:43;;;;;;;13.80;12.50;;;31.60;44.60;;;;;;4996149;28;20502;-71
2022/08/19 09:36:12;;;;;;;13.68;12.35;;;31.70;44.10;;;;;;4992916;28;20050;-64
2022/08/19 09:38:41;;;;;;;11.35;10.25;;;31.60;44.00;;;;;;4994161;28;20053;-69
2022/08/19 09:41:12;;;;;;;10.38;9.20;;;31.60;44.20;;;;;;4994444;28;20053;-70
2022/08/19 09:43:37;;;;;;;12.82;11.63;;;31.60;44.30;;;;;;4985389;28;20034;-69
2022/08/19 09:46:06;;;;;;;13.23;11.93;;;31.70;44.30;;;;;;4986591;28;20131;-69
2022/08/19 09:48:39;;;;;;;11.27;10.18;;;31.70;44.50;;;;;;4994366;28;20046;-64
2022/08/19 09:51:16;;;;;;;13.63;12.25;;;31.70;44.70;;;;;;4982230;28;20057;-68
2022/08/19 09:53:44;;;;;;;10.70;9.60;;;31.70;44.60;;;;;;4995702;28;20050;-69
2022/08/19 09:56:10;;;;;;;11.55;9.95;;;31.80;44.40;;;;;;4981576;28;20518;-69
2022/08/19 09:58:36;;;;;;;11.02;10.02;;;31.80;44.30;;;;;;4976058;28;20494;-70
2022/08/19 10:01:04;;;;;;;10.23;9.23;;;31.90;44.10;;;;;;4988071;28;20044;-69
2022/08/19 10:03:31;;;;;;;12.27;11.02;;;31.90;43.90;;;;;;4989631;28;20038;-70
2022/08/19 10:05:58;;;;;;;12.23;10.82;;;31.80;44.00;;;;;;4989977;28;20043;-69
2022/08/19 10:08:33;;;;;;;10.40;9.50;;;31.80;43.90;;;;;;4990510;28;20094;-69
2022/08/19 10:10:59;;;;;;;10.10;9.10;;;31.80;44.00;;;;;;4989794;28;20045;-69
2022/08/19 10:13:27;;;;;;;10.75;9.65;;;31.80;43.70;;;;;;4989289;28;20137;-64
2022/08/19 10:15:57;;;;;;;9.40;7.85;;;31.70;44.00;;;;;;4989515;28;20494;-64
2022/08/19 10:18:24;;;;;;;9.10;8.20;;;31.70;44.00;;;;;;4990716;28;20375;-63
2022/08/19 10:20:52;;;;;;;10.90;8.30;;;31.70;43.90;;;;;;4989557;28;20389;-63
2022/08/19 10:23:20;;;;;;;9.07;8.27;;;31.70;43.70;;;;;;4991197;28;20097;-63
2022/08/19 10:25:46;;;;;;;11.10;10.10;;;31.80;43.60;;;;;;4990117;28;20113;-64
2022/08/19 10:28:11;;;;;;;9.35;8.43;;;31.70;43.20;;;;;;4990086;28;20458;-69
2022/08/19 10:30:41;;;;;;;7.57;6.88;;;31.80;43.30;;;;;;4988953;28;20046;-68
2022/08/19 10:33:06;;;;;;;11.82;9.48;;;31.80;43.80;;;;;;4990788;28;20409;-69
2022/08/19 10:35:33;;;;;;;10.02;7.70;;;31.80;43.30;;;;;;4987736;28;20042;-69
2022/08/19 10:37:59;;;;;;;10.20;9.20;;;31.80;43.50;;;;;;4987522;28;20121;-69
2022/08/19 10:40:27;;;;;;;10.82;8.05;;;31.90;43.00;;;;;;4988863;28;20548;-63
2022/08/19 10:42:55;;;;;;;8.32;7.60;;;31.90;43.60;;;;;;4990238;28;20038;-63
2022/08/19 10:45:24;;;;;;;13.25;11.95;;;31.90;44.00;;;;;;4989545;28;20058;-69
2022/08/19 10:47:50;;;;;;;11.52;10.32;;;31.90;43.70;;;;;;4989946;28;20406;-64
2022/08/19 10:53:05;;;;;;;9.85;8.85;;;32.00;43.80;;;;;;4990571;28;20552;-64
2022/08/19 10:58:22;;;;;;;10.35;9.25;;;32.00;43.60;;;;;;4989087;28;20049;-64
2022/08/19 11:00:56;;;;;;;9.05;8.15;;;32.00;43.40;;;;;;4989357;28;20064;-64
2022/08/19 11:03:22;;;;;;;9.48;7.72;;;32.10;43.70;;;;;;4989396;28;20042;-63
2022/08/19 11:05:58;;;;;;;9.02;8.23;;;32.10;43.50;;;;;;4989729;28;20398;-68
2022/08/19 11:08:26;;;;;;;15.45;13.65;;;32.10;43.30;;;;;;4990388;28;20092;-63
2022/08/19 11:10:55;;;;;;;8.75;7.95;;;32.10;42.10;;;;;;4989634;28;20049;-68
2022/08/19 11:13:21;;;;;;;8.52;7.72;;;32.10;43.10;;;;;;4988381;28;20046;-69
2022/08/19 11:15:47;;;;;;;9.20;7.85;;;32.10;43.80;;;;;;4988505;28;20057;-68
2022/08/19 11:18:13;;;;;;;10.10;9.10;;;32.10;43.40;;;;;;4989881;28;20038;-68
2022/08/19 11:20:38;;;;;;;13.77;12.48;;;32.10;43.30;;;;;;4989637;28;20077;-69
2022/08/19 11:23:04;;;;;;;13.52;12.07;;;32.10;43.00;;;;;;4988504;28;20042;-69
2022/08/19 11:25:30;;;;;;;10.07;8.35;;;32.20;43.10;;;;;;4987162;28;20084;-68
2022/08/19 11:27:55;;;;;;;9.68;8.77;;;32.20;43.20;;;;;;4988286;28;20085;-68
2022/08/19 11:30:21;;;;;;;10.90;9.80;;;32.20;43.00;;;;;;4988500;28;20141;-68
2022/08/19 11:32:47;;;;;;;11.27;10.00;;;32.20;42.70;;;;;;4972272;28;20165;-69
2022/08/19 11:35:13;;;;;;;9.13;8.07;;;32.30;42.80;;;;;;4988515;28;20569;-69
2022/08/19 11:37:40;;;;;;;10.73;9.63;;;32.30;43.00;;;;;;4988536;28;20034;-63
2022/08/19 11:40:07;;;;;;;12.95;11.75;;;32.30;43.00;;;;;;4989086;28;20128;-63
2022/08/19 11:45:16;;;;;;;9.45;8.18;;;32.30;42.20;;;;;;4987097;28;20061;-68
2022/08/19 11:47:43;;;;;;;11.55;10.35;;;32.20;42.50;;;;;;4988005;28;20482;-68
2022/08/19 11:50:09;;;;;;;8.25;7.38;;;32.20;41.80;;;;;;4987426;28;20053;-68
2022/08/19 11:52:35;;;;;;;7.82;7.13;;;32.20;42.70;;;;;;4989435;28;20050;-68
2022/08/19 11:55:01;;;;;;;10.48;9.38;;;32.20;42.70;;;;;;4986889;28;20065;-68
2022/08/19 11:57:26;;;;;;;15.05;13.48;;;32.10;42.30;;;;;;4988457;28;20069;-69
2022/08/19 11:59:52;;;;;;;10.88;9.77;;;32.10;41.70;;;;;;4987955;28;20034;-63
2022/08/19 12:02:18;;;;;;;11.93;9.15;;;32.10;42.90;;;;;;4989179;28;20038;-64
2022/08/19 12:04:44;;;;;;;12.20;10.93;;;32.10;43.20;;;;;;4986731;28;20104;-63
2022/08/19 12:07:11;;;;;;;9.57;8.60;;;32.10;43.20;;;;;;4991744;28;20042;-63
2022/08/19 12:09:38;;;;;;;13.60;11.10;;;32.10;43.40;;;;;;4992328;28;20552;-63
2022/08/19 12:12:05;;;;;;;9.07;8.18;;;32.20;43.20;;;;;;4993442;28;20047;-63
2022/08/19 12:14:31;;;;;;;9.32;8.43;;;32.20;43.20;;;;;;4984459;28;20112;-64
2022/08/19 12:16:57;;;;;;;12.15;10.95;;;32.20;43.30;;;;;;4973900;28;20414;-66
2022/08/19 12:19:24;;;;;;;11.70;10.60;;;32.20;43.30;;;;;;4980040;28;20045;-71
2022/08/19 12:21:51;;;;;;;14.15;12.85;;;32.20;42.70;;;;;;4986051;28;20085;-67
2022/08/19 12:24:22;;;;;;;14.13;11.90;;;32.20;42.10;;;;;;5003086;28;20046;-69
2022/08/19 12:26:48;;;;;;;13.52;12.10;;;32.10;42.50;;;;;;4979748;28;20056;-70
2022/08/19 12:29:14;;;;;;;14.30;12.80;;;32.10;43.20;;;;;;5011905;28;20046;-71
2022/08/19 12:31:40;;;;;;;13.38;12.07;;;32.00;43.20;;;;;;5006868;28;20481;-70
2022/08/19 12:34:07;;;;;;;14.20;12.80;;;31.90;43.40;;;;;;4993126;28;20038;-66
2022/08/19 12:36:33;;;;;;;16.45;14.88;;;31.90;43.40;;;;;;4973857;28;20034;-67
2022/08/19 12:38:59;;;;;;;11.82;10.73;;;31.80;43.50;;;;;;4994645;28;20104;-70
2022/08/19 12:41:25;;;;;;;12.68;11.57;;;31.70;43.90;;;;;;5010416;28;20038;-71
2022/08/19 12:43:52;;;;;;;13.88;12.48;;;31.70;44.10;;;;;;4976171;28;20124;-71
2022/08/19 12:46:19;;;;;;;13.70;12.30;;;31.70;44.20;;;;;;5011880;28;20046;-66
2022/08/19 12:48:45;;;;;;;12.82;11.70;;;31.70;44.40;;;;;;4976603;28;20082;-70
2022/08/19 12:51:17;;;;;;;13.68;11.57;;;31.60;44.20;;;;;;5008919;28;20450;-71
2022/08/19 12:53:43;;;;;;;11.57;10.40;;;31.60;44.10;;;;;;5008791;28;20055;-71
2022/08/19 12:56:11;;;;;;;13.32;10.43;;;31.60;43.60;;;;;;4991480;28;20038;-71
2022/08/19 12:58:37;;;;;;;14.93;13.25;;;31.60;43.30;;;;;;4978440;28;20049;-71
2022/08/19 13:01:14;;;;;;;10.38;9.35;;;31.50;43.20;;;;;;4996620;28;20117;-70
2022/08/19 13:03:40;;;;;;;16.67;15.02;;;31.50;43.60;;;;;;4985534;28;20038;-70
2022/08/19 13:06:07;;;;;;;15.95;14.43;;;31.40;43.70;;;;;;5011792;28;20042;-70
2022/08/19 13:08:33;;;;;;;11.90;10.73;;;31.40;44.10;;;;;;4995148;28;20046;-70